Wetterdaten: Woche 19.04.10 - 25.04.10 (KW16)
Datum Zeit Temperatur Luftfeuchte Luftdruck Niederschlag Wind Richtung Sonnenschein Solar Taupunkt Windchill Windben
19.04.2010 00:00 9.5 C 75 % 1012.8 hPa 0.0 l/m 2.1 km/h (1 Bft) SO 0.00 h 0 W/m 5.3 C 9.5 C 3.5 km/h (1 Bft)
19.04.2010 01:00 8.0 C 81 % 1013.1 hPa 0.0 l/m 1.4 km/h (1 Bft) SO 0.00 h 0 W/m 4.9 C 8.0 C 2.5 km/h (1 Bft)
19.04.2010 02:00 7.3 C 84 % 1013.2 hPa 0.0 l/m 0.5 km/h (0 Bft) SO 0.00 h 0 W/m 4.7 C 7.3 C 1.4 km/h (1 Bft)
19.04.2010 03:00 6.5 C 87 % 1013.1 hPa 0.0 l/m 0.7 km/h (0 Bft) SO 0.00 h 0 W/m 4.5 C 6.5 C 1.1 km/h (1 Bft)
19.04.2010 04:00 6.0 C 89 % 1013.4 hPa 0.0 l/m 0.8 km/h (0 Bft) SO 0.00 h 0 W/m 4.2 C 6.0 C 1.5 km/h (1 Bft)
19.04.2010 05:00 6.0 C 89 % 1013.4 hPa 0.0 l/m 0.0 km/h (0 Bft) SO 0.00 h 0 W/m 4.3 C 6.0 C 0.1 km/h (0 Bft)
19.04.2010 06:00 5.6 C 90 % 1013.5 hPa 0.0 l/m 0.2 km/h (0 Bft) SO 0.02 h 9 W/m 4.2 C 5.6 C 0.7 km/h (0 Bft)
19.04.2010 07:00 5.7 C 92 % 1014.0 hPa 0.0 l/m 0.1 km/h (0 Bft) SO 0.00 h 53 W/m 4.4 C 5.7 C 0.1 km/h (0 Bft)
19.04.2010 08:00 7.6 C 86 % 1014.4 hPa 0.0 l/m 0.0 km/h (0 Bft) N 0.93 h 214 W/m 5.4 C 7.6 C 0.4 km/h (0 Bft)
19.04.2010 09:00 10.3 C 78 % 1014.5 hPa 0.0 l/m 1.2 km/h (1 Bft) SO 1.00 h 392 W/m 6.7 C 10.3 C 2.6 km/h (1 Bft)
19.04.2010 10:00 14.2 C 65 % 1014.2 hPa 0.0 l/m 4.0 km/h (1 Bft) S 1.00 h 555 W/m 7.7 C 14.2 C 8.1 km/h (2 Bft)
19.04.2010 11:00 16.5 C 51 % 1014.1 hPa 0.0 l/m 8.5 km/h (2 Bft) W-SW 1.00 h 687 W/m 6.3 C 16.5 C 13.7 km/h (3 Bft)
19.04.2010 12:00 18.1 C 40 % 1013.8 hPa 0.0 l/m 9.5 km/h (2 Bft) W 1.00 h 777 W/m 4.4 C 18.1 C 14.6 km/h (3 Bft)
19.04.2010 13:00 19.3 C 37 % 1013.4 hPa 0.0 l/m 8.8 km/h (2 Bft) W 1.00 h 808 W/m 4.4 C 19.3 C 14.1 km/h (3 Bft)
19.04.2010 14:00 20.0 C 32 % 1012.9 hPa 0.0 l/m 8.7 km/h (2 Bft) W-NW 1.00 h 772 W/m 3.0 C 20.0 C 13.6 km/h (3 Bft)
19.04.2010 15:00 20.6 C 27 % 1012.6 hPa 0.0 l/m 9.1 km/h (2 Bft) W-NW 1.00 h 677 W/m 0.9 C 20.6 C 14.9 km/h (3 Bft)
19.04.2010 16:00 20.8 C 24 % 1012.3 hPa 0.0 l/m 9.0 km/h (2 Bft) W 1.00 h 550 W/m -0.3 C 20.8 C 14.2 km/h (3 Bft)
19.04.2010 17:00 20.6 C 25 % 1012.2 hPa 0.0 l/m 8.6 km/h (2 Bft) W 1.00 h 387 W/m -0.1 C 20.6 C 13.4 km/h (3 Bft)
19.04.2010 18:00 20.3 C 25 % 1012.3 hPa 0.0 l/m 7.8 km/h (2 Bft) W 1.00 h 215 W/m -0.5 C 20.3 C 11.8 km/h (2 Bft)
19.04.2010 19:00 19.2 C 25 % 1012.3 hPa 0.0 l/m 5.5 km/h (1 Bft) W 0.30 h 69 W/m -1.4 C 19.2 C 8.4 km/h (2 Bft)
19.04.2010 20:00 16.2 C 35 % 1012.8 hPa 0.0 l/m 1.1 km/h (1 Bft) W 0.02 h 10 W/m 0.5 C 16.2 C 2.3 km/h (1 Bft)
19.04.2010 21:00 13.8 C 45 % 1013.3 hPa 0.0 l/m 1.8 km/h (1 Bft) O 0.00 h 0 W/m 2.0 C 13.8 C 3.6 km/h (1 Bft)
19.04.2010 22:00 12.0 C 53 % 1013.4 hPa 0.0 l/m 4.2 km/h (1 Bft) O 0.00 h 0 W/m 2.8 C 12.0 C 6.2 km/h (2 Bft)
19.04.2010 23:00 11.0 C 58 % 1013.6 hPa 0.0 l/m 1.5 km/h (1 Bft) O 0.00 h 0 W/m 3.0 C 11.0 C 3.0 km/h (1 Bft)
20.04.2010 00:00 9.2 C 67 % 1014.1 hPa 0.0 l/m 1.0 km/h (0 Bft) O-SO 0.00 h 0 W/m 3.3 C 9.2 C 2.0 km/h (1 Bft)
20.04.2010 01:00 8.2 C 71 % 1014.4 hPa 0.0 l/m 1.0 km/h (0 Bft) O-SO 0.00 h 0 W/m 3.3 C 8.2 C 1.8 km/h (1 Bft)
20.04.2010 02:00 7.4 C 74 % 1014.4 hPa 0.0 l/m 1.2 km/h (1 Bft) O 0.00 h 0 W/m 3.2 C 7.4 C 1.9 km/h (1 Bft)
20.04.2010 03:00 6.7 C 78 % 1014.3 hPa 0.0 l/m 0.4 km/h (0 Bft) O 0.00 h 0 W/m 3.0 C 6.7 C 1.3 km/h (1 Bft)
20.04.2010 04:00 5.8 C 80 % 1014.3 hPa 0.0 l/m 0.6 km/h (0 Bft) O 0.00 h 0 W/m 2.7 C 5.8 C 1.4 km/h (1 Bft)
20.04.2010 05:00 5.2 C 83 % 1014.4 hPa 0.0 l/m 0.3 km/h (0 Bft) O 0.00 h 0 W/m 2.5 C 5.2 C 0.7 km/h (0 Bft)
20.04.2010 06:00 5.1 C 84 % 1014.6 hPa 0.0 l/m 0.4 km/h (0 Bft) O 0.32 h 19 W/m 2.7 C 5.1 C 0.8 km/h (0 Bft)
20.04.2010 07:00 6.0 C 84 % 1015.1 hPa 0.0 l/m 0.5 km/h (0 Bft) O 0.23 h 63 W/m 3.5 C 6.0 C 1.0 km/h (0 Bft)
20.04.2010 08:00 7.1 C 82 % 1015.6 hPa 0.0 l/m 0.2 km/h (0 Bft) O 0.35 h 161 W/m 4.3 C 7.1 C 0.9 km/h (0 Bft)
20.04.2010 09:00 9.5 C 72 % 1015.8 hPa 0.0 l/m 1.6 km/h (1 Bft) O-SO 0.47 h 307 W/m 4.8 C 9.5 C 3.5 km/h (1 Bft)
20.04.2010 10:00 13.2 C 61 % 1015.6 hPa 0.0 l/m 1.5 km/h (1 Bft) O-SO 1.00 h 516 W/m 5.8 C 13.2 C 3.2 km/h (1 Bft)
20.04.2010 11:00 14.6 C 57 % 1015.9 hPa 0.0 l/m 2.3 km/h (1 Bft) N-NW 0.22 h 301 W/m 6.2 C 14.6 C 4.6 km/h (1 Bft)
20.04.2010 12:00 14.1 C 55 % 1016.5 hPa 0.0 l/m 11.7 km/h (2 Bft) W 0.00 h 90 W/m 5.1 C 14.1 C 18.7 km/h (3 Bft)
20.04.2010 13:00 12.5 C 68 % 1016.9 hPa 0.0 l/m 5.3 km/h (1 Bft) W-SW 0.02 h 201 W/m 6.8 C 12.5 C 8.6 km/h (2 Bft)
20.04.2010 14:00 15.9 C 54 % 1016.5 hPa 0.0 l/m 7.2 km/h (2 Bft) W 0.68 h 612 W/m 6.6 C 15.9 C 11.6 km/h (2 Bft)
20.04.2010 15:00 18.0 C 45 % 1015.7 hPa 0.0 l/m 12.7 km/h (3 Bft) W-SW 1.00 h 665 W/m 6.0 C 18.0 C 19.8 km/h (3 Bft)
20.04.2010 16:00 18.9 C 42 % 1014.9 hPa 0.0 l/m 10.5 km/h (2 Bft) W 0.83 h 509 W/m 5.6 C 18.9 C 16.9 km/h (3 Bft)
20.04.2010 17:00 18.0 C 40 % 1014.6 hPa 0.0 l/m 12.1 km/h (2 Bft) W 0.27 h 230 W/m 4.2 C 18.0 C 18.5 km/h (3 Bft)
20.04.2010 18:00 17.8 C 42 % 1014.9 hPa 0.0 l/m 10.3 km/h (2 Bft) W 0.67 h 208 W/m 4.7 C 17.8 C 16.0 km/h (3 Bft)
20.04.2010 19:00 16.9 C 44 % 1014.8 hPa 0.0 l/m 8.5 km/h (2 Bft) W 0.23 h 59 W/m 4.5 C 16.9 C 13.3 km/h (3 Bft)
20.04.2010 20:00 15.6 C 49 % 1015.1 hPa 0.0 l/m 9.5 km/h (2 Bft) W 0.00 h 10 W/m 4.8 C 15.6 C 14.3 km/h (3 Bft)
20.04.2010 21:00 14.3 C 54 % 1015.6 hPa 0.0 l/m 3.8 km/h (1 Bft) W 0.00 h 0 W/m 5.1 C 14.3 C 6.3 km/h (2 Bft)
20.04.2010 22:00 12.0 C 65 % 1015.9 hPa 0.0 l/m 4.8 km/h (1 Bft) O-SO 0.00 h 0 W/m 5.5 C 12.0 C 6.6 km/h (2 Bft)
20.04.2010 23:00 11.2 C 70 % 1016.2 hPa 0.0 l/m 1.9 km/h (1 Bft) S-SO 0.00 h 0 W/m 5.9 C 11.2 C 3.5 km/h (1 Bft)
21.04.2010 00:00 9.9 C 75 % 1016.6 hPa 0.0 l/m 2.1 km/h (1 Bft) SO 0.00 h 0 W/m 5.7 C 9.9 C 3.5 km/h (1 Bft)
21.04.2010 01:00 8.7 C 80 % 1016.6 hPa 0.0 l/m 1.9 km/h (1 Bft) O-SO 0.00 h 0 W/m 5.4 C 8.6 C 3.0 km/h (1 Bft)
21.04.2010 02:00 7.6 C 84 % 1016.2 hPa 0.0 l/m 0.5 km/h (0 Bft) O-SO 0.00 h 0 W/m 5.0 C 7.6 C 1.3 km/h (1 Bft)
21.04.2010 03:00 7.0 C 87 % 1016.1 hPa 0.0 l/m 0.3 km/h (0 Bft) O-SO 0.00 h 0 W/m 4.9 C 7.0 C 0.8 km/h (0 Bft)
21.04.2010 04:00 5.9 C 90 % 1016.1 hPa 0.0 l/m 0.0 km/h (0 Bft) N 0.00 h 0 W/m 4.3 C 5.9 C 0.5 km/h (0 Bft)
21.04.2010 05:00 5.1 C 90 % 1016.0 hPa 0.0 l/m 0.3 km/h (0 Bft) O-SO 0.00 h 0 W/m 3.7 C 5.1 C 1.2 km/h (1 Bft)
21.04.2010 06:00 4.7 C 92 % 1016.0 hPa 0.0 l/m 0.3 km/h (0 Bft) O-SO 0.00 h 17 W/m 3.4 C 4.7 C 0.7 km/h (0 Bft)
21.04.2010 07:00 5.3 C 91 % 1016.2 hPa 0.0 l/m 0.0 km/h (0 Bft) N 0.07 h 71 W/m 4.0 C 5.3 C 0.0 km/h (0 Bft)
21.04.2010 08:00 7.3 C 85 % 1016.3 hPa 0.0 l/m 0.0 km/h (0 Bft) N 0.93 h 250 W/m 4.9 C 7.3 C 0.4 km/h (0 Bft)
21.04.2010 09:00 10.1 C 74 % 1015.9 hPa 0.0 l/m 0.5 km/h (0 Bft) S 1.00 h 414 W/m 5.5 C 10.1 C 1.7 km/h (1 Bft)
21.04.2010 10:00 13.4 C 58 % 1015.4 hPa 0.0 l/m 4.9 km/h (1 Bft) W-NW 1.00 h 576 W/m 5.3 C 13.4 C 8.3 km/h (2 Bft)
21.04.2010 11:00 15.1 C 48 % 1015.1 hPa 0.0 l/m 12.5 km/h (3 Bft) W 1.00 h 696 W/m 4.2 C 15.1 C 19.2 km/h (3 Bft)
21.04.2010 12:00 16.4 C 45 % 1015.0 hPa 0.0 l/m 12.3 km/h (3 Bft) W 1.00 h 776 W/m 4.5 C 16.4 C 19.3 km/h (3 Bft)
21.04.2010 13:00 17.2 C 42 % 1014.6 hPa 0.0 l/m 15.8 km/h (3 Bft) W 1.00 h 812 W/m 4.2 C 17.2 C 24.4 km/h (4 Bft)
21.04.2010 14:00 17.7 C 41 % 1014.2 hPa 0.0 l/m 13.5 km/h (3 Bft) W-NW 1.00 h 786 W/m 4.4 C 17.7 C 20.8 km/h (4 Bft)
21.04.2010 15:00 18.4 C 39 % 1013.6 hPa 0.0 l/m 14.8 km/h (3 Bft) W-NW 1.00 h 696 W/m 4.1 C 18.4 C 23.4 km/h (4 Bft)
21.04.2010 16:00 18.9 C 35 % 1012.9 hPa 0.0 l/m 15.7 km/h (3 Bft) W-NW 1.00 h 564 W/m 3.1 C 18.9 C 25.2 km/h (4 Bft)
21.04.2010 17:00 18.8 C 30 % 1012.8 hPa 0.0 l/m 16.5 km/h (3 Bft) W-NW 1.00 h 397 W/m 0.9 C 18.8 C 24.7 km/h (4 Bft)
21.04.2010 18:00 18.4 C 23 % 1012.6 hPa 0.0 l/m 15.2 km/h (3 Bft) W-NW 0.83 h 217 W/m -3.1 C 18.4 C 23.4 km/h (4 Bft)
21.04.2010 19:00 17.0 C 27 % 1012.8 hPa 0.0 l/m 11.2 km/h (2 Bft) W-NW 0.00 h 61 W/m -2.1 C 17.0 C 17.6 km/h (3 Bft)
21.04.2010 20:00 15.3 C 37 % 1013.2 hPa 0.0 l/m 5.4 km/h (1 Bft) W-NW 0.00 h 12 W/m 0.5 C 15.3 C 9.0 km/h (2 Bft)
21.04.2010 21:00 13.1 C 47 % 1013.9 hPa 0.0 l/m 1.2 km/h (1 Bft) O-SO 0.00 h 0 W/m 2.0 C 13.1 C 2.9 km/h (1 Bft)
21.04.2010 22:00 11.8 C 47 % 1014.6 hPa 0.0 l/m 3.1 km/h (1 Bft) O-SO 0.00 h 0 W/m 0.9 C 11.8 C 7.1 km/h (2 Bft)
21.04.2010 23:00 11.2 C 44 % 1015.1 hPa 0.0 l/m 5.1 km/h (1 Bft) O 0.00 h 0 W/m -0.6 C 11.2 C 10.2 km/h (2 Bft)
22.04.2010 00:00 10.0 C 47 % 1015.4 hPa 0.0 l/m 4.4 km/h (1 Bft) N-NO 0.00 h 0 W/m -0.7 C 9.9 C 9.5 km/h (2 Bft)
22.04.2010 01:00 8.4 C 54 % 1015.5 hPa 0.0 l/m 2.5 km/h (1 Bft) N 0.00 h 0 W/m -0.4 C 8.2 C 5.7 km/h (1 Bft)
22.04.2010 02:00 7.2 C 59 % 1015.4 hPa 0.0 l/m 1.8 km/h (1 Bft) SO 0.00 h 0 W/m -0.2 C 7.2 C 3.9 km/h (1 Bft)
22.04.2010 03:00 6.7 C 62 % 1015.2 hPa 0.0 l/m 2.0 km/h (1 Bft) O 0.00 h 0 W/m -0.0 C 6.5 C 4.4 km/h (1 Bft)
22.04.2010 04:00 5.9 C 66 % 1015.5 hPa 0.0 l/m 1.8 km/h (1 Bft) SO 0.00 h 0 W/m 0.0 C 5.8 C 3.9 km/h (1 Bft)
22.04.2010 05:00 5.2 C 68 % 1015.3 hPa 0.0 l/m 0.7 km/h (0 Bft) O-SO 0.00 h 0 W/m -0.1 C 5.2 C 1.9 km/h (1 Bft)
22.04.2010 06:00 4.5 C 71 % 1015.2 hPa 0.0 l/m 1.3 km/h (1 Bft) O-SO 0.08 h 17 W/m -0.3 C 4.5 C 2.9 km/h (1 Bft)
22.04.2010 07:00 4.7 C 71 % 1015.3 hPa 0.0 l/m 0.6 km/h (0 Bft) SO 0.13 h 64 W/m -0.0 C 4.7 C 1.3 km/h (1 Bft)
22.04.2010 08:00 7.1 C 63 % 1015.3 hPa 0.0 l/m 1.3 km/h (1 Bft) SO 1.00 h 259 W/m 0.5 C 7.0 C 3.4 km/h (1 Bft)
22.04.2010 09:00 9.0 C 55 % 1014.9 hPa 0.0 l/m 3.4 km/h (1 Bft) O-SO 1.00 h 434 W/m 0.5 C 8.9 C 6.8 km/h (2 Bft)
22.04.2010 10:00 11.2 C 52 % 1014.1 hPa 0.0 l/m 3.0 km/h (1 Bft) O-SO 1.00 h 584 W/m 1.6 C 11.2 C 6.1 km/h (2 Bft)
22.04.2010 11:00 13.0 C 48 % 1013.5 hPa 0.0 l/m 5.7 km/h (1 Bft) O-SO 1.00 h 693 W/m 2.1 C 13.0 C 10.5 km/h (2 Bft)
22.04.2010 12:00 14.0 C 45 % 1012.9 hPa 0.0 l/m 8.6 km/h (2 Bft) O-SO 0.95 h 690 W/m 2.2 C 14.0 C 13.9 km/h (3 Bft)
22.04.2010 13:00 15.0 C 43 % 1012.5 hPa 0.0 l/m 8.9 km/h (2 Bft) O-SO 0.92 h 692 W/m 2.7 C 15.0 C 14.9 km/h (3 Bft)
22.04.2010 14:00 15.8 C 42 % 1011.8 hPa 0.0 l/m 8.5 km/h (2 Bft) O-SO 0.87 h 570 W/m 3.1 C 15.8 C 13.3 km/h (3 Bft)
22.04.2010 15:00 17.4 C 40 % 1011.0 hPa 0.0 l/m 6.2 km/h (2 Bft) O-SO 1.00 h 700 W/m 3.6 C 17.4 C 11.1 km/h (2 Bft)
22.04.2010 16:00 17.6 C 39 % 1010.5 hPa 0.0 l/m 7.0 km/h (2 Bft) O-SO 1.00 h 533 W/m 3.3 C 17.6 C 11.5 km/h (2 Bft)
22.04.2010 17:00 17.7 C 37 % 1009.9 hPa 0.0 l/m 9.9 km/h (2 Bft) O-SO 1.00 h 419 W/m 2.7 C 17.7 C 15.6 km/h (3 Bft)
22.04.2010 18:00 17.4 C 37 % 1009.8 hPa 0.0 l/m 8.1 km/h (2 Bft) O-SO 1.00 h 278 W/m 2.5 C 17.4 C 13.7 km/h (3 Bft)
22.04.2010 19:00 16.0 C 39 % 1009.9 hPa 0.0 l/m 2.8 km/h (1 Bft) O-SO 0.05 h 49 W/m 2.1 C 16.0 C 6.1 km/h (2 Bft)
22.04.2010 20:00 14.6 C 43 % 1009.9 hPa 0.0 l/m 0.5 km/h (0 Bft) NO 0.02 h 12 W/m 2.1 C 14.6 C 1.9 km/h (1 Bft)
22.04.2010 21:00 12.8 C 50 % 1010.3 hPa 0.0 l/m 0.4 km/h (0 Bft) NO 0.00 h 0 W/m 2.6 C 12.8 C 1.6 km/h (1 Bft)
22.04.2010 22:00 11.8 C 53 % 1010.6 hPa 0.0 l/m 0.2 km/h (0 Bft) O-SO 0.00 h 0 W/m 2.6 C 11.8 C 1.0 km/h (0 Bft)
22.04.2010 23:00 10.2 C 61 % 1010.7 hPa 0.0 l/m 0.3 km/h (0 Bft) O 0.00 h 0 W/m 3.0 C 10.2 C 1.0 km/h (0 Bft)
23.04.2010 00:00 9.7 C 61 % 1010.5 hPa 0.0 l/m 0.2 km/h (0 Bft) O 0.00 h 0 W/m 2.5 C 9.7 C 1.0 km/h (0 Bft)
23.04.2010 01:00 9.2 C 61 % 1010.3 hPa 0.0 l/m 0.0 km/h (0 Bft) O 0.00 h 0 W/m 2.0 C 9.2 C 0.2 km/h (0 Bft)
23.04.2010 02:00 8.4 C 62 % 1010.0 hPa 0.0 l/m 0.0 km/h (0 Bft) N 0.00 h 0 W/m 1.5 C 8.4 C 0.6 km/h (0 Bft)
23.04.2010 03:00 7.3 C 67 % 1009.8 hPa 0.0 l/m 1.1 km/h (1 Bft) O 0.00 h 0 W/m 1.5 C 7.3 C 2.5 km/h (1 Bft)
23.04.2010 04:00 6.9 C 69 % 1009.9 hPa 0.0 l/m 0.1 km/h (0 Bft) O 0.00 h 0 W/m 1.6 C 6.9 C 0.5 km/h (0 Bft)
23.04.2010 05:00 6.4 C 71 % 1010.0 hPa 0.0 l/m 0.1 km/h (0 Bft) O 0.00 h 0 W/m 1.5 C 6.4 C 0.8 km/h (0 Bft)
23.04.2010 06:00 5.9 C 71 % 1010.3 hPa 0.0 l/m 0.0 km/h (0 Bft) N 0.05 h 20 W/m 1.1 C 5.9 C 0.1 km/h (0 Bft)
23.04.2010 07:00 6.2 C 76 % 1010.8 hPa 0.0 l/m 0.0 km/h (0 Bft) O 0.00 h 78 W/m 2.3 C 6.2 C 0.4 km/h (0 Bft)
23.04.2010 08:00 7.9 C 71 % 1011.3 hPa 0.0 l/m 0.1 km/h (0 Bft) O 0.02 h 171 W/m 2.9 C 7.9 C 0.7 km/h (0 Bft)
23.04.2010 09:00 10.1 C 55 % 1010.9 hPa 0.0 l/m 4.0 km/h (1 Bft) O-SO 0.90 h 316 W/m 1.4 C 10.0 C 6.6 km/h (2 Bft)
23.04.2010 10:00 11.8 C 50 % 1010.8 hPa 0.0 l/m 5.5 km/h (1 Bft) O-SO 1.00 h 457 W/m 1.8 C 11.8 C 8.9 km/h (2 Bft)
23.04.2010 11:00 13.9 C 47 % 1010.7 hPa 0.0 l/m 5.4 km/h (1 Bft) O-SO 1.00 h 510 W/m 2.7 C 13.9 C 8.8 km/h (2 Bft)
23.04.2010 12:00 15.2 C 44 % 1010.4 hPa 0.0 l/m 8.0 km/h (2 Bft) O-SO 0.90 h 501 W/m 3.2 C 15.2 C 12.5 km/h (3 Bft)
23.04.2010 13:00 16.3 C 43 % 1010.1 hPa 0.0 l/m 7.4 km/h (2 Bft) O-SO 1.00 h 514 W/m 3.8 C 16.3 C 11.6 km/h (2 Bft)
23.04.2010 14:00 17.4 C 41 % 1010.0 hPa 0.0 l/m 7.6 km/h (2 Bft) O-SO 0.92 h 462 W/m 4.1 C 17.4 C 11.7 km/h (2 Bft)
23.04.2010 15:00 18.0 C 38 % 1010.1 hPa 0.0 l/m 7.2 km/h (2 Bft) O-SO 0.73 h 404 W/m 3.5 C 18.0 C 10.8 km/h (2 Bft)
23.04.2010 16:00 18.4 C 37 % 1009.9 hPa 0.0 l/m 7.3 km/h (2 Bft) O-SO 0.28 h 329 W/m 3.6 C 18.4 C 11.1 km/h (2 Bft)
23.04.2010 17:00 18.4 C 38 % 1010.2 hPa 0.0 l/m 4.1 km/h (1 Bft) O-SO 0.30 h 253 W/m 3.7 C 18.4 C 7.5 km/h (2 Bft)
23.04.2010 18:00 17.6 C 39 % 1010.6 hPa 0.0 l/m 3.7 km/h (1 Bft) O-SO 0.00 h 128 W/m 3.6 C 17.6 C 6.1 km/h (2 Bft)
23.04.2010 19:00 17.3 C 39 % 1011.1 hPa 0.0 l/m 0.9 km/h (0 Bft) O 0.30 h 79 W/m 3.1 C 17.3 C 2.2 km/h (1 Bft)
23.04.2010 20:00 15.8 C 44 % 1011.7 hPa 0.0 l/m 0.5 km/h (0 Bft) NO 0.30 h 17 W/m 3.5 C 15.8 C 1.3 km/h (1 Bft)
23.04.2010 21:00 13.8 C 51 % 1012.5 hPa 0.0 l/m 1.9 km/h (1 Bft) O 0.00 h 0 W/m 3.8 C 13.8 C 3.3 km/h (1 Bft)
23.04.2010 22:00 12.1 C 55 % 1013.2 hPa 0.0 l/m 0.5 km/h (0 Bft) O 0.00 h 0 W/m 3.4 C 12.1 C 1.7 km/h (1 Bft)
23.04.2010 23:00 10.4 C 64 % 1013.3 hPa 0.0 l/m 0.0 km/h (0 Bft) N 0.00 h 0 W/m 3.9 C 10.4 C 0.4 km/h (0 Bft)
24.04.2010 00:00 8.8 C 70 % 1013.8 hPa 0.0 l/m 0.6 km/h (0 Bft) O 0.00 h 0 W/m 3.5 C 8.8 C 1.5 km/h (1 Bft)
24.04.2010 01:00 8.2 C 70 % 1013.9 hPa 0.0 l/m 1.2 km/h (1 Bft) O 0.00 h 0 W/m 3.0 C 8.2 C 2.9 km/h (1 Bft)
24.04.2010 02:00 7.7 C 69 % 1014.2 hPa 0.0 l/m 1.6 km/h (1 Bft) O 0.00 h 0 W/m 2.5 C 7.7 C 3.0 km/h (1 Bft)
24.04.2010 03:00 7.0 C 71 % 1014.5 hPa 0.0 l/m 2.3 km/h (1 Bft) O 0.00 h 0 W/m 2.1 C 7.0 C 3.8 km/h (1 Bft)
24.04.2010 04:00 5.8 C 75 % 1015.0 hPa 0.0 l/m 0.7 km/h (0 Bft) O 0.00 h 0 W/m 1.7 C 5.8 C 1.9 km/h (1 Bft)
24.04.2010 05:00 5.2 C 77 % 1015.3 hPa 0.0 l/m 0.4 km/h (0 Bft) O 0.00 h 0 W/m 1.6 C 5.2 C 1.5 km/h (1 Bft)
24.04.2010 06:00 4.5 C 79 % 1015.7 hPa 0.0 l/m 0.4 km/h (0 Bft) O 0.05 h 16 W/m 1.2 C 4.5 C 1.5 km/h (1 Bft)
24.04.2010 07:00 4.9 C 80 % 1016.4 hPa 0.0 l/m 0.4 km/h (0 Bft) O 0.15 h 65 W/m 1.8 C 4.9 C 1.1 km/h (0 Bft)
24.04.2010 08:00 8.1 C 71 % 1016.8 hPa 0.0 l/m 0.0 km/h (0 Bft) N 1.00 h 263 W/m 3.2 C 8.1 C 0.7 km/h (0 Bft)
24.04.2010 09:00 10.9 C 61 % 1016.8 hPa 0.0 l/m 0.4 km/h (0 Bft) O 1.00 h 433 W/m 3.7 C 10.9 C 1.7 km/h (1 Bft)
24.04.2010 10:00 15.3 C 46 % 1016.5 hPa 0.0 l/m 3.2 km/h (1 Bft) O-SO 1.00 h 590 W/m 3.6 C 15.3 C 6.4 km/h (2 Bft)
24.04.2010 11:00 17.6 C 43 % 1016.3 hPa 0.0 l/m 6.7 km/h (2 Bft) O-SO 1.00 h 709 W/m 5.0 C 17.6 C 11.3 km/h (2 Bft)
24.04.2010 12:00 19.3 C 42 % 1016.0 hPa 0.0 l/m 9.0 km/h (2 Bft) O-SO 1.00 h 785 W/m 5.9 C 19.3 C 13.7 km/h (3 Bft)
24.04.2010 13:00 20.6 C 39 % 1015.7 hPa 0.0 l/m 6.4 km/h (2 Bft) SO 1.00 h 804 W/m 6.0 C 20.6 C 11.5 km/h (2 Bft)
24.04.2010 14:00 22.0 C 36 % 1015.4 hPa 0.0 l/m 4.4 km/h (1 Bft) O-SO 1.00 h 768 W/m 6.1 C 22.0 C 7.9 km/h (2 Bft)
24.04.2010 15:00 22.8 C 33 % 1015.5 hPa 0.0 l/m 3.7 km/h (1 Bft) SO 1.00 h 687 W/m 5.7 C 22.8 C 7.2 km/h (2 Bft)
24.04.2010 16:00 22.9 C 32 % 1015.3 hPa 0.0 l/m 5.7 km/h (1 Bft) O-SO 1.00 h 562 W/m 5.4 C 22.9 C 9.8 km/h (2 Bft)
24.04.2010 17:00 22.7 C 33 % 1015.3 hPa 0.0 l/m 7.7 km/h (2 Bft) O-SO 1.00 h 407 W/m 5.4 C 22.7 C 12.5 km/h (3 Bft)
24.04.2010 18:00 22.2 C 33 % 1015.4 hPa 0.0 l/m 6.9 km/h (2 Bft) O-SO 1.00 h 239 W/m 5.1 C 22.2 C 11.0 km/h (2 Bft)
24.04.2010 19:00 21.1 C 36 % 1015.8 hPa 0.0 l/m 3.5 km/h (1 Bft) O-SO 0.47 h 83 W/m 5.3 C 21.1 C 6.7 km/h (2 Bft)
24.04.2010 20:00 18.8 C 43 % 1016.4 hPa 0.0 l/m 0.7 km/h (0 Bft) O-SO 0.02 h 13 W/m 5.9 C 18.8 C 1.9 km/h (1 Bft)
24.04.2010 21:00 16.6 C 50 % 1017.3 hPa 0.0 l/m 0.3 km/h (0 Bft) O-SO 0.00 h 0 W/m 6.1 C 16.6 C 1.0 km/h (0 Bft)
24.04.2010 22:00 13.8 C 61 % 1018.1 hPa 0.0 l/m 0.2 km/h (0 Bft) O-SO 0.00 h 0 W/m 6.3 C 13.8 C 0.6 km/h (0 Bft)
24.04.2010 23:00 12.7 C 65 % 1018.3 hPa 0.0 l/m 0.1 km/h (0 Bft) O-SO 0.00 h 0 W/m 6.2 C 12.7 C 0.5 km/h (0 Bft)
25.04.2010 00:00 11.9 C 66 % 1018.7 hPa 0.0 l/m 0.8 km/h (0 Bft) O 0.00 h 0 W/m 5.8 C 11.9 C 2.6 km/h (1 Bft)
25.04.2010 01:00 10.8 C 68 % 1018.8 hPa 0.0 l/m 1.5 km/h (1 Bft) O 0.00 h 0 W/m 5.2 C 10.8 C 3.0 km/h (1 Bft)
25.04.2010 02:00 9.7 C 71 % 1019.0 hPa 0.0 l/m 0.9 km/h (0 Bft) O-NO 0.00 h 0 W/m 4.7 C 9.7 C 1.9 km/h (1 Bft)
25.04.2010 03:00 8.4 C 76 % 1019.0 hPa 0.0 l/m 0.3 km/h (0 Bft) O-NO 0.00 h 0 W/m 4.3 C 8.4 C 0.9 km/h (0 Bft)
25.04.2010 04:00 7.8 C 77 % 1019.4 hPa 0.0 l/m 1.1 km/h (1 Bft) O-NO 0.00 h 0 W/m 3.9 C 7.8 C 2.1 km/h (1 Bft)
25.04.2010 05:00 6.9 C 80 % 1019.9 hPa 0.0 l/m 0.4 km/h (0 Bft) O-NO 0.00 h 0 W/m 3.7 C 6.9 C 1.2 km/h (1 Bft)
25.04.2010 06:00 6.5 C 80 % 1020.4 hPa 0.0 l/m 0.3 km/h (0 Bft) O-NO 0.03 h 15 W/m 3.4 C 6.5 C 1.1 km/h (1 Bft)
25.04.2010 07:00 6.8 C 82 % 1021.2 hPa 0.0 l/m 0.0 km/h (0 Bft) N 0.18 h 70 W/m 3.8 C 6.8 C 0.0 km/h (0 Bft)
25.04.2010 08:00 9.5 C 74 % 1021.8 hPa 0.0 l/m 0.0 km/h (0 Bft) N 1.00 h 264 W/m 5.0 C 9.5 C 0.1 km/h (0 Bft)
25.04.2010 09:00 12.4 C 61 % 1021.9 hPa 0.0 l/m 0.2 km/h (0 Bft) O-NO 1.00 h 430 W/m 5.1 C 12.4 C 1.3 km/h (1 Bft)
25.04.2010 10:00 15.5 C 53 % 1021.7 hPa 0.0 l/m 0.9 km/h (0 Bft) NO 0.97 h 555 W/m 6.0 C 15.5 C 2.4 km/h (1 Bft)
25.04.2010 11:00 18.7 C 45 % 1021.3 hPa 0.0 l/m 2.0 km/h (1 Bft) O-SO 1.00 h 713 W/m 6.4 C 18.7 C 4.3 km/h (1 Bft)
25.04.2010 12:00 21.2 C 40 % 1020.7 hPa 0.0 l/m 2.9 km/h (1 Bft) SO 1.00 h 785 W/m 7.1 C 21.2 C 5.6 km/h (1 Bft)
25.04.2010 13:00 23.0 C 34 % 1020.1 hPa 0.0 l/m 3.4 km/h (1 Bft) SO 1.00 h 757 W/m 6.2 C 23.0 C 6.3 km/h (2 Bft)
25.04.2010 14:00 24.3 C 28 % 1019.7 hPa 0.0 l/m 3.0 km/h (1 Bft) W-NW 1.00 h 682 W/m 4.4 C 24.3 C 5.3 km/h (1 Bft)
25.04.2010 15:00 25.2 C 25 % 1019.5 hPa 0.0 l/m 6.1 km/h (2 Bft) W-SW 1.00 h 636 W/m 3.8 C 25.2 C 10.0 km/h (2 Bft)
25.04.2010 16:00 25.0 C 26 % 1019.3 hPa 0.0 l/m 8.3 km/h (2 Bft) W-SW 1.00 h 495 W/m 4.3 C 25.0 C 13.1 km/h (3 Bft)
25.04.2010 17:00 24.7 C 28 % 1019.3 hPa 0.0 l/m 9.2 km/h (2 Bft) W 1.00 h 385 W/m 4.7 C 24.7 C 14.0 km/h (3 Bft)
25.04.2010 18:00 24.0 C 31 % 1019.4 hPa 0.0 l/m 6.4 km/h (2 Bft) W-SW 0.62 h 186 W/m 5.8 C 24.0 C 9.6 km/h (2 Bft)
25.04.2010 19:00 22.4 C 35 % 1019.5 hPa 0.0 l/m 5.2 km/h (1 Bft) W-SW 0.05 h 67 W/m 6.2 C 22.4 C 8.1 km/h (2 Bft)
25.04.2010 20:00 21.0 C 40 % 1019.8 hPa 0.0 l/m 2.2 km/h (1 Bft) W-NW 0.18 h 16 W/m 6.9 C 21.0 C 4.0 km/h (1 Bft)
25.04.2010 21:00 19.5 C 46 % 1020.3 hPa 0.0 l/m 1.3 km/h (1 Bft) SO 0.00 h 0 W/m 7.6 C 19.5 C 2.9 km/h (1 Bft)
25.04.2010 22:00 18.5 C 49 % 1020.6 hPa 0.0 l/m 2.3 km/h (1 Bft) O 0.00 h 0 W/m 7.6 C 18.5 C 4.2 km/h (1 Bft)
25.04.2010 23:00 16.9 C 54 % 1020.6 hPa 0.0 l/m 4.0 km/h (1 Bft) SO 0.00 h 0 W/m 7.5 C 16.9 C 6.3 km/h (2 Bft)
Min-Datum _ 24.04.10 19.04.10 22.04.10 - 19.04.10 - - - 21.04.10 22.04.10 19.04.10
_ Min-Zeit 06:52 16:18 20:15 - 00:09 - - - 18:45 06:35 00:29
Minimum _ 3.9 C 20 % 1009.7 hPa - 0.0 km/h (0 Bft) - - - -4.5 C 2.9 C 0.0 km/h (0 Bft)
Max-Datum _ 25.04.10 21.04.10 25.04.10 19.04.10 21.04.10 - 19.04.10 22.04.10 25.04.10 25.04.10 21.04.10
_ Max-Zeit 15:28 06:39 09:15 00:00 17:13 - 06:42 13:32 12:25 15:26 13:24
Maximum _ 25.9 C 93 % 1022.0 hPa 0.0 l/m 26.1 km/h
W-NW (4 Bft)
- 0.02 h 997 W/m 10.1 C 25.8 C 36.5 km/h
W (5 Bft)
Durchschnitt _ 13.0 C 56 % 1014.7 hPa #0.0 l/m 3.8 km/h (1 Bft) O-SO #69:49 h 233 W/m 3.6 C 13.0 C 6.5 km/h (2 Bft)
© Kaiko 2010